Time;durP1;ratioP1;P1;durP2;ratioP2;P2;SDS_P1;SDS_P2;PMS_P1;PMS_P2;Temp;Humidity;BMP_temperature;BMP_pressure;BME280_temperature;BME280_humidity;BME280_pressure;Samples;Min_cycle;Max_cycle;Signal;HPM_P1;HPM_P2
2021/01/11 00:00:19;;;;;;;1.25;0.30;;;26.60;99.90;;;;;;5064265;28;20097;-82
2021/01/11 00:02:47;;;;;;;4.00;0.40;;;26.70;99.90;;;;;;5066950;28;20028;-83
2021/01/11 00:05:15;;;;;;;2.65;0.40;;;26.70;99.90;;;;;;5055254;23;20115;-83
2021/01/11 00:07:44;;;;;;;2.00;0.40;;;26.70;99.90;;;;;;5047949;28;20090;-88
2021/01/11 00:10:15;;;;;;;3.63;0.50;;;26.70;99.90;;;;;;5041432;28;20513;-88
2021/01/11 00:12:44;;;;;;;1.50;0.40;;;26.90;99.90;;;;;;5034418;28;20021;-86
2021/01/11 00:15:15;;;;;;;3.88;0.55;;;26.90;99.90;;;;;;5041426;28;20043;-86
2021/01/11 00:17:45;;;;;;;2.47;0.40;;;27.40;99.90;;;;;;5032502;28;20128;-85
2021/01/11 00:20:13;;;;;;;1.80;0.20;;;27.20;99.90;;;;;;5035473;28;20031;-87
2021/01/11 00:22:44;;;;;;;1.58;0.30;;;27.20;99.90;;;;;;5042316;28;20498;-88
2021/01/11 00:25:12;;;;;;;3.70;1.00;;;27.10;99.90;;;;;;5035746;28;20029;-87
2021/01/11 00:27:40;;;;;;;3.50;0.28;;;27.30;99.90;;;;;;5035617;28;20493;-87
2021/01/11 00:30:08;;;;;;;2.95;0.30;;;27.30;99.90;;;;;;5038727;28;20037;-88
2021/01/11 00:32:36;;;;;;;1.85;0.30;;;27.50;99.90;;;;;;5039019;28;20461;-87
2021/01/11 00:35:08;;;;;;;1.88;0.30;;;27.50;99.90;;;;;;5036063;28;20033;-89
2021/01/11 00:37:36;;;;;;;2.20;0.32;;;27.40;99.90;;;;;;5059135;22;20060;-87
2021/01/11 00:40:08;;;;;;;2.65;0.28;;;27.30;99.90;;;;;;5069779;28;20036;-88
2021/01/11 00:42:36;;;;;;;11.65;0.70;;;27.20;99.90;;;;;;5054194;28;20074;-87
2021/01/11 00:45:06;;;;;;;3.20;0.60;;;27.50;99.90;;;;;;5057137;28;20482;-87
2021/01/11 00:47:41;;;;;;;2.35;0.47;;;27.50;99.90;;;;;;5071425;28;20028;-87
2021/01/11 00:50:10;;;;;;;4.07;0.50;;;27.60;99.90;;;;;;5062869;28;20032;-87
2021/01/11 00:52:38;;;;;;;2.15;0.22;;;27.70;99.90;;;;;;5056671;28;20282;-86
2021/01/11 00:55:08;;;;;;;3.08;0.63;;;27.80;99.90;;;;;;5068452;28;20021;-85
2021/01/11 00:57:35;;;;;;;2.75;0.30;;;27.80;99.90;;;;;;5066156;28;20036;-84
2021/01/11 01:00:05;;;;;;;1.83;0.22;;;27.90;99.90;;;;;;5053434;28;20017;-90
2021/01/11 01:02:32;;;;;;;3.00;0.40;;;28.00;99.90;;;;;;5080659;28;20115;-88
2021/01/11 01:04:59;;;;;;;1.25;0.50;;;27.80;99.90;;;;;;5069199;28;20502;-87
2021/01/11 01:07:26;;;;;;;2.58;0.28;;;27.90;99.90;;;;;;5052610;28;20081;-87
2021/01/11 01:09:54;;;;;;;5.68;1.20;;;28.30;99.90;;;;;;5069031;28;20029;-87
2021/01/11 01:12:21;;;;;;;4.20;0.40;;;28.20;99.90;;;;;;5071749;28;20024;-86
2021/01/11 01:14:48;;;;;;;3.53;0.50;;;28.30;99.90;;;;;;5069649;28;20029;-86
2021/01/11 01:17:15;;;;;;;4.53;0.68;;;28.30;99.70;;;;;;5051495;28;20086;-86
2021/01/11 01:19:43;;;;;;;3.00;0.38;;;28.50;99.90;;;;;;5051427;28;20027;-87
2021/01/11 01:22:10;;;;;;;3.20;0.30;;;28.50;99.90;;;;;;5070388;28;20066;-85
2021/01/11 01:24:37;;;;;;;4.43;0.70;;;28.50;99.90;;;;;;5045558;28;20051;-86
2021/01/11 01:27:05;;;;;;;3.08;0.40;;;28.30;99.40;;;;;;5068712;28;20024;-87
2021/01/11 01:29:32;;;;;;;3.15;0.50;;;28.10;99.30;;;;;;5071284;28;20017;-86
2021/01/11 01:32:00;;;;;;;1.45;0.20;;;28.10;99.90;;;;;;5068829;28;20035;-87
2021/01/11 01:34:27;;;;;;;2.45;0.50;;;28.40;99.90;;;;;;5071408;28;20025;-88
2021/01/11 01:36:55;;;;;;;5.05;0.40;;;28.50;99.90;;;;;;5069100;28;20505;-87
2021/01/11 01:39:23;;;;;;;3.80;0.40;;;28.50;99.90;;;;;;5104205;22;20057;-87
2021/01/11 01:41:50;;;;;;;1.95;0.20;;;28.70;99.90;;;;;;5084361;22;20070;-88
2021/01/11 01:44:18;;;;;;;2.25;0.28;;;28.90;99.90;;;;;;5071354;28;20062;-89
2021/01/11 01:46:45;;;;;;;2.15;0.20;;;29.30;99.30;;;;;;5049156;22;20467;-90
2021/01/11 01:49:13;;;;;;;2.33;0.28;;;29.20;99.90;;;;;;5030866;28;20421;-88
2021/01/11 01:51:41;;;;;;;2.58;0.38;;;29.00;99.90;;;;;;5030127;28;20022;-91
2021/01/11 01:54:09;;;;;;;6.57;0.70;;;29.40;99.30;;;;;;5054629;22;21242;-90
2021/01/11 01:56:36;;;;;;;3.22;0.30;;;29.30;98.30;;;;;;5062397;28;20086;-89
2021/01/11 01:59:04;;;;;;;2.25;0.50;;;29.50;99.90;;;;;;5071355;28;20074;-89
2021/01/11 02:01:34;;;;;;;1.25;0.40;;;29.10;98.20;;;;;;5050948;28;20085;-90
2021/01/11 02:04:02;;;;;;;2.38;0.30;;;29.10;98.60;;;;;;5056973;28;20439;-89
2021/01/11 02:06:35;;;;;;;2.85;0.32;;;29.30;98.90;;;;;;5072814;28;20036;-85
2021/01/11 02:09:14;;;;;;;2.53;0.30;;;29.50;98.00;;;;;;5075243;28;20013;-89
2021/01/11 02:11:46;;;;;;;3.90;0.68;;;29.20;98.80;;;;;;5089095;22;20613;-86
2021/01/11 02:14:38;;;;;;;2.80;0.40;;;29.10;97.90;;;;;;5074832;28;20032;-92
2021/01/11 02:17:08;;;;;;;3.13;0.75;;;29.20;99.10;;;;;;5073970;28;20036;-88
2021/01/11 02:20:13;;;;;;;3.78;0.22;;;29.20;98.50;;;;;;5075318;28;20027;-86
2021/01/11 02:23:04;;;;;;;2.60;0.75;;;29.00;99.10;;;;;;5052946;28;20618;-86
2021/01/11 02:25:54;;;;;;;4.55;0.60;;;29.40;98.90;;;;;;5072759;28;20024;-88
2021/01/11 02:28:42;;;;;;;2.28;0.68;;;29.10;98.50;;;;;;5073962;28;20032;-85
2021/01/11 02:31:10;;;;;;;5.57;0.65;;;29.00;97.40;;;;;;5071866;28;20032;-86
2021/01/11 02:33:39;;;;;;;3.25;0.60;;;28.90;97.40;;;;;;5073745;28;20081;-86
2021/01/11 02:36:08;;;;;;;3.00;0.55;;;29.00;97.20;;;;;;5073110;28;20462;-90
2021/01/11 02:38:37;;;;;;;3.03;0.35;;;29.00;96.20;;;;;;5064935;28;20029;-92
2021/01/11 02:41:05;;;;;;;2.95;0.60;;;28.60;98.20;;;;;;5069572;28;20044;-89
2021/01/11 02:43:32;;;;;;;1.33;0.38;;;28.80;98.00;;;;;;5065279;22;20111;-93
2021/01/11 02:46:00;;;;;;;3.70;0.50;;;28.80;98.20;;;;;;5072159;28;20047;-83
2021/01/11 02:48:30;;;;;;;3.42;0.55;;;29.10;99.70;;;;;;5069818;28;20028;-85
2021/01/11 02:51:23;;;;;;;3.55;0.30;;;28.70;95.80;;;;;;5050565;28;20033;-83
2021/01/11 02:53:53;;;;;;;3.95;0.30;;;28.50;96.60;;;;;;5039244;28;20041;-84
2021/01/11 02:56:58;;;;;;;4.63;0.30;;;28.60;96.40;;;;;;5057067;28;20033;-82
2021/01/11 02:59:36;;;;;;;0.45;0.25;;;28.70;96.90;;;;;;5003065;28;20159;-84
2021/01/11 03:02:12;;;;;;;3.10;0.30;;;29.00;96.60;;;;;;5032871;28;20028;-83
2021/01/11 03:04:40;;;;;;;1.92;0.28;;;29.10;97.50;;;;;;5051190;28;20029;-84
2021/01/11 03:07:09;;;;;;;2.25;0.30;;;29.20;96.10;;;;;;5049239;28;20033;-83
2021/01/11 03:09:41;;;;;;;1.92;0.40;;;29.30;95.30;;;;;;5053197;28;20537;-85
2021/01/11 03:12:09;;;;;;;5.43;0.30;;;29.00;94.70;;;;;;5043427;28;20090;-83
2021/01/11 03:14:38;;;;;;;1.52;0.43;;;28.60;95.30;;;;;;5050403;28;20082;-83
2021/01/11 03:17:06;;;;;;;2.67;0.28;;;28.50;95.00;;;;;;5051531;28;20029;-86
2021/01/11 03:19:33;;;;;;;1.35;0.40;;;28.10;95.50;;;;;;5048895;28;20021;-85
2021/01/11 03:22:01;;;;;;;3.17;0.30;;;28.80;96.10;;;;;;5047141;28;20100;-85
2021/01/11 03:24:28;;;;;;;6.03;0.50;;;28.70;95.40;;;;;;5052840;28;20478;-85
2021/01/11 03:27:00;;;;;;;6.60;0.50;;;28.80;96.30;;;;;;5048371;28;20058;-83
2021/01/11 03:29:27;;;;;;;2.47;0.30;;;28.80;96.10;;;;;;5048966;28;20481;-85
2021/01/11 03:31:55;;;;;;;1.25;0.40;;;28.70;96.00;;;;;;5050603;28;20470;-94
2021/01/11 03:34:22;;;;;;;3.03;0.45;;;28.50;96.10;;;;;;5063383;28;20021;-94
2021/01/11 03:36:50;;;;;;;3.33;0.40;;;28.40;96.10;;;;;;5048515;28;20033;-83
2021/01/11 03:39:17;;;;;;;4.47;1.00;;;28.30;96.90;;;;;;5052182;28;20029;-84
2021/01/11 03:41:47;;;;;;;3.17;0.40;;;28.00;96.30;;;;;;5039351;28;20525;-84
2021/01/11 03:46:42;;;;;;;2.60;0.30;;;28.00;96.70;;;;;;5081935;22;20064;-84
2021/01/11 03:49:09;;;;;;;2.65;0.65;;;28.00;97.00;;;;;;5034323;22;20396;-85
2021/01/11 03:51:36;;;;;;;4.35;1.10;;;27.90;96.40;;;;;;4999434;28;20021;-85
2021/01/11 03:54:04;;;;;;;2.22;0.30;;;28.10;96.60;;;;;;5073189;22;20483;-84
2021/01/11 03:56:31;;;;;;;2.17;0.30;;;27.90;97.20;;;;;;5065830;28;20036;-86
2021/01/11 03:58:58;;;;;;;2.70;0.20;;;27.70;97.00;;;;;;5053806;28;20020;-82
2021/01/11 04:01:27;;;;;;;4.65;0.35;;;27.20;97.30;;;;;;5081600;22;20083;-84
2021/01/11 04:03:55;;;;;;;3.88;0.20;;;27.30;97.30;;;;;;5072050;28;20027;-84
2021/01/11 04:06:22;;;;;;;3.03;0.43;;;27.30;97.70;;;;;;5070066;28;20403;-85
2021/01/11 04:08:50;;;;;;;1.90;0.43;;;27.10;97.60;;;;;;5071941;28;20247;-83
2021/01/11 04:11:21;;;;;;;2.22;0.45;;;27.30;98.30;;;;;;5067886;28;20035;-82
2021/01/11 04:13:49;;;;;;;1.10;0.40;;;27.30;97.70;;;;;;5050349;28;20504;-85
2021/01/11 04:16:17;;;;;;;0.80;0.30;;;27.30;99.10;;;;;;5067062;28;20051;-83
2021/01/11 04:18:44;;;;;;;1.83;0.22;;;27.50;98.60;;;;;;5082671;22;20056;-83
2021/01/11 04:21:13;;;;;;;3.45;0.40;;;27.40;97.90;;;;;;5043732;28;20091;-82
2021/01/11 04:23:41;;;;;;;3.70;0.40;;;27.20;98.60;;;;;;5031917;28;20485;-83
2021/01/11 04:26:09;;;;;;;2.88;0.30;;;27.20;99.90;;;;;;5049084;28;20032;-83
2021/01/11 04:28:36;;;;;;;2.88;0.80;;;27.60;98.70;;;;;;5035330;28;20059;-82
2021/01/11 04:31:05;;;;;;;3.05;0.25;;;27.30;98.80;;;;;;5038701;28;20084;-84
2021/01/11 04:33:32;;;;;;;3.10;0.30;;;27.10;98.80;;;;;;5031904;28;20083;-87
2021/01/11 04:36:00;;;;;;;1.40;0.28;;;26.90;99.10;;;;;;5039427;28;20116;-84
2021/01/11 04:38:27;;;;;;;2.25;0.30;;;26.90;99.90;;;;;;5062744;28;20564;-82
2021/01/11 04:41:01;;;;;;;0.82;0.28;;;26.70;99.20;;;;;;5042690;28;20102;-82
2021/01/11 04:43:30;;;;;;;5.05;0.43;;;26.70;99.40;;;;;;5042071;28;20029;-84
2021/01/11 04:45:59;;;;;;;5.35;0.73;;;26.70;99.30;;;;;;5038183;28;20100;-83
2021/01/11 04:48:26;;;;;;;2.90;0.20;;;26.50;99.90;;;;;;5049018;28;20039;-85
2021/01/11 04:50:56;;;;;;;1.60;0.55;;;26.30;99.80;;;;;;5065160;22;20032;-84
2021/01/11 04:53:26;;;;;;;2.28;0.20;;;26.20;99.90;;;;;;5058750;28;20025;-83
2021/01/11 04:55:55;;;;;;;2.50;0.20;;;26.40;99.90;;;;;;5060304;28;20064;-79
2021/01/11 04:58:26;;;;;;;2.97;0.73;;;26.40;99.90;;;;;;5053357;28;20029;-80
2021/01/11 05:01:00;;;;;;;1.90;0.47;;;26.10;99.90;;;;;;5069394;28;20012;-80
2021/01/11 05:03:28;;;;;;;3.72;0.38;;;25.90;99.90;;;;;;5068716;28;20028;-81
2021/01/11 05:05:55;;;;;;;2.58;0.50;;;25.80;99.90;;;;;;5067492;28;20085;-81
2021/01/11 05:08:23;;;;;;;1.42;0.50;;;26.00;99.90;;;;;;5069382;28;20477;-81
2021/01/11 05:10:50;;;;;;;3.40;0.47;;;26.00;99.90;;;;;;5068204;28;20020;-82
2021/01/11 05:13:17;;;;;;;3.05;0.30;;;26.10;99.90;;;;;;5071363;28;20028;-82
2021/01/11 05:15:45;;;;;;;2.22;0.30;;;25.70;99.90;;;;;;5050129;28;20363;-80
2021/01/11 05:18:17;;;;;;;1.92;0.20;;;25.80;99.90;;;;;;5072480;28;20093;-85
2021/01/11 05:20:45;;;;;;;2.75;0.30;;;25.70;99.90;;;;;;5042896;28;20020;-84
2021/01/11 05:23:14;;;;;;;4.53;0.32;;;25.60;99.90;;;;;;5065091;28;20032;-86
2021/01/11 05:25:43;;;;;;;5.10;0.63;;;25.50;99.90;;;;;;5041564;28;20057;-85
2021/01/11 05:28:18;;;;;;;3.08;0.35;;;25.60;99.90;;;;;;5050952;28;20028;-88
2021/01/11 05:30:46;;;;;;;3.22;1.02;;;25.60;99.90;;;;;;5057820;28;20403;-81
2021/01/11 05:33:24;;;;;;;2.83;0.20;;;25.60;99.90;;;;;;5068968;28;20033;-81
2021/01/11 05:36:13;;;;;;;4.28;0.63;;;25.60;99.90;;;;;;5068258;28;20032;-82
2021/01/11 05:38:52;;;;;;;2.33;0.32;;;25.60;99.90;;;;;;5074821;28;20024;-81
2021/01/11 05:41:21;;;;;;;2.50;0.22;;;25.70;99.90;;;;;;5073341;28;20024;-82
2021/01/11 05:44:16;;;;;;;1.83;0.38;;;25.70;99.90;;;;;;5079861;28;20024;-80
2021/01/11 05:46:49;;;;;;;4.18;0.73;;;25.60;99.90;;;;;;5053156;28;20025;-83
2021/01/11 05:49:20;;;;;;;2.47;0.60;;;25.60;99.90;;;;;;5066252;28;20032;-82
2021/01/11 05:51:47;;;;;;;3.40;0.38;;;25.60;99.90;;;;;;5081489;22;20051;-82
2021/01/11 05:54:28;;;;;;;4.65;0.57;;;25.60;99.90;;;;;;5064819;22;20489;-81
2021/01/11 05:56:59;;;;;;;2.17;0.30;;;25.60;99.90;;;;;;5040187;23;20175;-82
2021/01/11 05:59:26;;;;;;;2.97;0.30;;;25.60;99.90;;;;;;5046030;22;20417;-83
2021/01/11 06:02:03;;;;;;;3.83;0.32;;;25.60;99.90;;;;;;5071513;28;20049;-84
2021/01/11 06:04:31;;;;;;;1.15;0.20;;;25.50;99.90;;;;;;5056052;28;20020;-82
2021/01/11 06:06:59;;;;;;;3.58;0.63;;;25.50;99.90;;;;;;5063572;28;20025;-82
2021/01/11 06:09:27;;;;;;;1.92;0.15;;;25.60;99.90;;;;;;5080282;22;20143;-83
2021/01/11 06:11:56;;;;;;;4.28;0.40;;;25.60;99.90;;;;;;5070776;28;20031;-80
2021/01/11 06:14:25;;;;;;;1.73;0.28;;;25.50;99.90;;;;;;5065124;28;20447;-80
2021/01/11 06:16:52;;;;;;;3.05;0.30;;;25.50;99.90;;;;;;5073102;28;20057;-80
2021/01/11 06:19:20;;;;;;;3.75;0.50;;;25.70;99.90;;;;;;5067124;28;20075;-79
2021/01/11 06:21:51;;;;;;;3.03;0.50;;;25.70;99.90;;;;;;5059095;28;20040;-79
2021/01/11 06:24:19;;;;;;;2.90;0.57;;;25.80;99.90;;;;;;5055397;28;20039;-79
2021/01/11 06:26:47;;;;;;;3.05;0.20;;;25.70;99.90;;;;;;5072217;22;20080;-80
2021/01/11 06:29:32;;;;;;;2.33;0.30;;;25.80;99.90;;;;;;5060956;28;20032;-80
2021/01/11 06:32:18;;;;;;;3.42;0.40;;;25.80;99.90;;;;;;5068346;28;20029;-80
2021/01/11 06:34:46;;;;;;;4.05;0.30;;;25.80;99.90;;;;;;5062296;28;20433;-79
2021/01/11 06:37:25;;;;;;;3.15;0.40;;;25.70;99.90;;;;;;5078350;28;20032;-80
2021/01/11 06:39:53;;;;;;;2.70;0.35;;;25.70;99.90;;;;;;5090145;28;20028;-78
2021/01/11 06:42:20;;;;;;;1.98;0.30;;;25.80;99.90;;;;;;5073685;28;20019;-79
2021/01/11 06:44:49;;;;;;;7.35;0.60;;;25.60;99.90;;;;;;5071404;28;20028;-77
2021/01/11 06:47:30;;;;;;;3.25;0.73;;;25.60;99.90;;;;;;5074146;28;20021;-81
2021/01/11 06:50:09;;;;;;;2.85;0.30;;;25.60;99.90;;;;;;5047549;28;20048;-80
2021/01/11 06:52:38;;;;;;;2.00;0.30;;;25.40;99.90;;;;;;5071122;28;20137;-80
2021/01/11 06:55:12;;;;;;;4.72;0.43;;;25.30;99.90;;;;;;5069329;28;20481;-79
2021/01/11 06:57:40;;;;;;;1.73;0.20;;;25.10;99.90;;;;;;5072385;28;20575;-83
2021/01/11 07:00:13;;;;;;;3.90;0.70;;;25.10;99.90;;;;;;5079891;22;20098;-88
2021/01/11 07:02:44;;;;;;;2.05;0.40;;;25.00;99.90;;;;;;5053641;28;20033;-90
2021/01/11 07:05:35;;;;;;;2.22;0.20;;;25.00;99.90;;;;;;5055199;28;20024;-88
2021/01/11 07:08:03;;;;;;;8.60;0.60;;;25.00;99.90;;;;;;5061185;28;20029;-89
2021/01/11 07:10:30;;;;;;;2.97;0.28;;;25.00;99.90;;;;;;5066766;28;20023;-85
2021/01/11 07:13:19;;;;;;;1.95;0.38;;;24.90;99.90;;;;;;5074235;28;20074;-92
2021/01/11 07:15:53;;;;;;;4.53;0.88;;;24.90;99.90;;;;;;5071747;28;20032;-91
2021/01/11 07:18:38;;;;;;;6.97;0.40;;;24.90;99.90;;;;;;5081001;28;20040;-83
2021/01/11 07:21:34;;;;;;;3.42;0.50;;;24.90;99.90;;;;;;5076209;28;20074;-94
2021/01/11 07:24:03;;;;;;;1.92;0.50;;;24.90;99.90;;;;;;5066154;28;20648;-91
2021/01/11 07:26:31;;;;;;;2.08;0.30;;;25.00;99.90;;;;;;5058737;28;20029;-90
2021/01/11 07:29:10;;;;;;;4.43;0.50;;;25.00;99.90;;;;;;5067002;28;20032;-89
2021/01/11 07:31:42;;;;;;;4.07;0.40;;;25.00;99.90;;;;;;5060568;28;20017;-96
2021/01/11 07:34:13;;;;;;;2.92;0.70;;;24.90;99.90;;;;;;5067780;28;20035;-95
2021/01/11 07:36:43;;;;;;;5.25;0.88;;;24.80;99.90;;;;;;5059125;28;20020;-90
2021/01/11 07:39:15;;;;;;;3.25;0.52;;;24.80;99.90;;;;;;5095040;28;20436;-93
2021/01/11 07:41:48;;;;;;;4.50;0.82;;;24.70;99.90;;;;;;5058590;28;20031;-91
2021/01/11 07:44:26;;;;;;;2.77;0.40;;;24.70;99.90;;;;;;5074050;28;20021;-90
2021/01/11 07:47:07;;;;;;;3.67;0.50;;;24.70;99.90;;;;;;5057266;28;20027;-92
2021/01/11 07:49:37;;;;;;;2.97;0.40;;;24.70;99.90;;;;;;5062302;28;20103;-93
2021/01/11 07:52:10;;;;;;;4.97;0.50;;;24.60;99.90;;;;;;5080771;28;20024;-96
2021/01/11 07:54:41;;;;;;;2.30;0.40;;;24.50;99.90;;;;;;5091886;28;20499;-91
2021/01/11 07:57:12;;;;;;;3.60;0.60;;;24.40;99.90;;;;;;5054178;28;20455;-89
2021/01/11 07:59:40;;;;;;;3.58;0.77;;;24.40;99.90;;;;;;5074788;22;20056;-88
2021/01/11 08:02:13;;;;;;;3.33;0.50;;;24.40;99.90;;;;;;5041192;22;20083;-87
2021/01/11 08:04:41;;;;;;;3.25;0.43;;;24.30;99.90;;;;;;5064155;28;20025;-81
2021/01/11 08:07:12;;;;;;;2.92;0.43;;;24.30;99.90;;;;;;5086283;22;20502;-84
2021/01/11 08:09:41;;;;;;;5.13;0.80;;;24.30;99.90;;;;;;5071648;28;20061;-81
2021/01/11 08:12:17;;;;;;;4.00;0.40;;;24.20;99.90;;;;;;5071067;28;20490;-83
2021/01/11 08:14:46;;;;;;;2.50;1.00;;;24.10;99.90;;;;;;5059903;28;20107;-82
2021/01/11 08:17:20;;;;;;;4.15;0.68;;;24.10;99.90;;;;;;5074440;22;20049;-83
2021/01/11 08:19:52;;;;;;;5.30;0.70;;;24.10;99.90;;;;;;5067116;28;20025;-85
2021/01/11 08:22:21;;;;;;;2.42;0.43;;;24.10;99.90;;;;;;5067353;28;20032;-83
2021/01/11 08:24:55;;;;;;;2.60;0.60;;;23.90;99.90;;;;;;5069368;28;20035;-83
2021/01/11 08:27:40;;;;;;;4.70;0.43;;;23.90;99.90;;;;;;5052947;28;20096;-86
2021/01/11 08:30:12;;;;;;;9.10;0.60;;;23.80;99.90;;;;;;5054572;28;20501;-87
2021/01/11 08:32:40;;;;;;;6.85;0.50;;;23.80;99.90;;;;;;5069193;22;20041;-82
2021/01/11 08:35:21;;;;;;;2.72;0.45;;;23.80;99.90;;;;;;5061099;28;20025;-83
2021/01/11 08:37:49;;;;;;;2.90;0.40;;;23.70;99.90;;;;;;5089063;28;20047;-87
2021/01/11 08:40:47;;;;;;;3.45;0.65;;;23.60;99.90;;;;;;5065143;28;20040;-89
2021/01/11 08:43:23;;;;;;;2.60;0.68;;;23.50;99.90;;;;;;5033186;28;20440;-83
2021/01/11 08:45:54;;;;;;;3.95;0.50;;;23.50;99.90;;;;;;5066413;28;20077;-83
2021/01/11 08:48:28;;;;;;;4.07;0.90;;;23.40;99.90;;;;;;5057138;28;20036;-91
2021/01/11 08:50:55;;;;;;;4.30;0.75;;;23.40;99.90;;;;;;5049873;28;20454;-87
2021/01/11 08:53:36;;;;;;;3.35;0.82;;;23.40;99.90;;;;;;5052713;28;20029;-83
2021/01/11 08:56:09;;;;;;;4.15;0.50;;;23.30;99.90;;;;;;5038854;28;20044;-82
2021/01/11 08:58:38;;;;;;;2.70;0.50;;;23.40;99.90;;;;;;5030917;28;20025;-76
2021/01/11 09:01:35;;;;;;;3.78;0.40;;;23.30;99.90;;;;;;5041589;28;20029;-88
2021/01/11 09:04:03;;;;;;;3.95;1.05;;;23.30;99.90;;;;;;5050891;28;20075;-85
2021/01/11 09:06:45;;;;;;;7.03;1.20;;;23.30;99.90;;;;;;5052289;22;20049;-87
2021/01/11 09:09:14;;;;;;;3.40;0.40;;;23.20;99.90;;;;;;5031090;28;20043;-85
2021/01/11 09:11:42;;;;;;;3.10;0.50;;;23.10;99.90;;;;;;5028981;28;20022;-84
2021/01/11 09:14:15;;;;;;;6.70;0.55;;;23.10;99.90;;;;;;5028814;28;20036;-84
2021/01/11 09:16:48;;;;;;;3.35;0.40;;;23.10;99.90;;;;;;5024113;28;20494;-84
2021/01/11 09:19:20;;;;;;;3.40;0.50;;;23.20;99.90;;;;;;5023436;28;20105;-84
2021/01/11 09:22:16;;;;;;;1.88;0.30;;;23.10;99.90;;;;;;5017743;28;20025;-84
2021/01/11 09:24:45;;;;;;;6.15;0.40;;;23.00;99.90;;;;;;5013023;28;20417;-83
2021/01/11 09:27:13;;;;;;;6.30;1.13;;;23.00;99.90;;;;;;5011124;28;20479;-85
2021/01/11 09:29:40;;;;;;;1.45;0.40;;;22.90;99.90;;;;;;5025480;28;20029;-82
2021/01/11 09:32:07;;;;;;;4.60;0.50;;;22.90;99.90;;;;;;5011121;28;20022;-82
2021/01/11 09:34:35;;;;;;;1.70;0.40;;;22.90;99.90;;;;;;5015488;28;20098;-82
2021/01/11 09:37:02;;;;;;;3.88;0.30;;;22.90;99.90;;;;;;5030407;28;20038;-82
2021/01/11 09:39:29;;;;;;;5.22;0.68;;;22.90;99.90;;;;;;5011375;28;20014;-83
2021/01/11 09:41:57;;;;;;;5.60;0.60;;;22.90;99.90;;;;;;5012003;28;20087;-84
2021/01/11 09:44:25;;;;;;;4.57;0.68;;;22.90;99.90;;;;;;4993585;28;20109;-86
2021/01/11 09:46:55;;;;;;;6.75;0.70;;;22.80;99.90;;;;;;5010648;28;20022;-84
2021/01/11 09:49:23;;;;;;;5.68;0.50;;;22.80;99.90;;;;;;4993825;28;20482;-84
2021/01/11 09:51:51;;;;;;;6.28;0.60;;;22.80;99.90;;;;;;5010923;28;20061;-87
2021/01/11 09:54:19;;;;;;;3.92;0.40;;;22.80;99.90;;;;;;5001267;28;20452;-86
2021/01/11 09:56:47;;;;;;;7.18;1.45;;;22.80;99.90;;;;;;5029850;28;20038;-85
2021/01/11 09:59:15;;;;;;;3.60;0.60;;;22.80;99.90;;;;;;5030787;28;20075;-83
2021/01/11 10:01:44;;;;;;;3.40;0.68;;;22.80;99.90;;;;;;5030931;28;20448;-84
2021/01/11 10:04:12;;;;;;;1.60;0.35;;;22.80;99.90;;;;;;5019436;28;20129;-85
2021/01/11 10:06:41;;;;;;;1.88;0.50;;;22.70;99.90;;;;;;5040135;23;20075;-88
2021/01/11 10:09:13;;;;;;;3.38;0.40;;;22.70;99.90;;;;;;5072747;22;20048;-82
2021/01/11 10:11:42;;;;;;;5.88;0.50;;;22.70;99.90;;;;;;5082592;22;20056;-84
2021/01/11 10:14:09;;;;;;;5.15;0.40;;;22.70;99.90;;;;;;5087344;22;20012;-83
2021/01/11 10:16:40;;;;;;;5.10;0.80;;;22.80;99.90;;;;;;5068072;28;20489;-83
2021/01/11 10:19:09;;;;;;;4.85;0.80;;;22.70;99.90;;;;;;5069519;28;20111;-84
2021/01/11 10:21:38;;;;;;;6.05;1.13;;;22.60;99.90;;;;;;5059804;28;20032;-83
2021/01/11 10:24:07;;;;;;;4.25;0.88;;;22.60;99.90;;;;;;5086462;22;20147;-83
2021/01/11 10:26:35;;;;;;;3.55;0.40;;;22.60;99.90;;;;;;5085354;28;20013;-82
2021/01/11 10:29:03;;;;;;;6.63;0.70;;;22.60;99.90;;;;;;5053405;28;20027;-84
2021/01/11 10:31:30;;;;;;;1.75;0.40;;;22.60;99.90;;;;;;5070787;28;20021;-84
2021/01/11 10:33:58;;;;;;;9.43;1.05;;;22.60;99.90;;;;;;5071718;28;20036;-83
2021/01/11 10:36:25;;;;;;;3.40;0.50;;;22.60;99.90;;;;;;5070933;28;20366;-85
2021/01/11 10:38:53;;;;;;;3.55;0.40;;;22.60;99.90;;;;;;5060943;28;20025;-80
2021/01/11 10:41:21;;;;;;;4.75;0.82;;;22.50;99.90;;;;;;5089575;22;20272;-82
2021/01/11 10:43:50;;;;;;;2.78;0.35;;;22.50;99.90;;;;;;5072687;28;20016;-83
2021/01/11 10:46:17;;;;;;;6.93;1.08;;;22.50;99.90;;;;;;5092800;28;20024;-84
2021/01/11 10:48:46;;;;;;;4.25;0.70;;;22.50;99.90;;;;;;5058336;28;20070;-83
2021/01/11 10:51:15;;;;;;;6.90;1.40;;;22.50;99.90;;;;;;5038271;28;20017;-84
2021/01/11 10:53:45;;;;;;;3.33;0.45;;;22.50;99.90;;;;;;5058675;28;20085;-83
2021/01/11 10:56:13;;;;;;;7.00;0.57;;;22.50;99.90;;;;;;5060372;28;20029;-84
2021/01/11 10:58:40;;;;;;;3.08;0.65;;;22.50;99.90;;;;;;5052888;28;20060;-84
2021/01/11 11:01:13;;;;;;;5.22;0.68;;;22.50;99.90;;;;;;5053895;28;20029;-84
2021/01/11 11:03:42;;;;;;;4.72;0.93;;;22.40;99.90;;;;;;5052757;28;20040;-84
2021/01/11 11:06:10;;;;;;;5.65;0.60;;;22.50;99.90;;;;;;5052295;28;20020;-83
2021/01/11 11:08:37;;;;;;;3.92;0.82;;;22.50;99.90;;;;;;5030107;28;20500;-83
2021/01/11 11:11:05;;;;;;;4.20;0.57;;;22.50;99.90;;;;;;5051557;28;20429;-84
2021/01/11 11:13:32;;;;;;;4.60;1.00;;;22.40;99.90;;;;;;5090624;22;20045;-83
2021/01/11 11:15:59;;;;;;;7.00;1.20;;;22.40;99.90;;;;;;5090864;28;20096;-85
2021/01/11 11:18:27;;;;;;;4.22;0.93;;;22.40;99.90;;;;;;5089359;28;20116;-84
2021/01/11 11:20:54;;;;;;;4.70;1.10;;;22.40;99.90;;;;;;5061153;28;20027;-85
2021/01/11 11:23:21;;;;;;;4.28;0.60;;;22.40;99.90;;;;;;5048922;28;20379;-85
2021/01/11 11:25:48;;;;;;;5.70;1.20;;;22.40;99.90;;;;;;5052559;28;20478;-86
2021/01/11 11:28:16;;;;;;;5.72;1.10;;;22.30;99.90;;;;;;5051957;28;20466;-84
2021/01/11 11:30:43;;;;;;;4.65;0.70;;;22.30;99.90;;;;;;5045657;28;20021;-84
2021/01/11 11:33:11;;;;;;;5.40;0.57;;;22.40;99.90;;;;;;5032307;28;20121;-85
2021/01/11 11:35:41;;;;;;;8.00;0.68;;;22.30;99.90;;;;;;5035634;28;20025;-85
2021/01/11 11:38:09;;;;;;;6.97;0.60;;;22.20;99.90;;;;;;5052731;28;20079;-86
2021/01/11 11:40:38;;;;;;;8.10;1.08;;;22.30;99.90;;;;;;5050297;28;20017;-86
2021/01/11 11:43:05;;;;;;;5.30;0.75;;;22.30;99.90;;;;;;5062899;28;20056;-85
2021/01/11 11:45:33;;;;;;;6.47;0.65;;;22.20;99.90;;;;;;5071129;28;20119;-85
2021/01/11 11:48:00;;;;;;;3.90;0.80;;;22.20;99.90;;;;;;5072327;28;20016;-85
2021/01/11 11:50:28;;;;;;;6.88;0.80;;;22.20;99.90;;;;;;5064013;28;20109;-85
2021/01/11 11:52:55;;;;;;;5.18;0.55;;;22.20;99.90;;;;;;5051779;28;20119;-86
2021/01/11 11:55:23;;;;;;;5.95;1.23;;;22.20;99.90;;;;;;5058791;28;20081;-87
2021/01/11 11:57:50;;;;;;;4.68;0.80;;;22.20;99.90;;;;;;5051786;28;20484;-86
2021/01/11 12:00:18;;;;;;;6.80;0.80;;;22.10;99.90;;;;;;5032539;28;20013;-87
2021/01/11 12:02:50;;;;;;;4.57;0.75;;;22.20;99.90;;;;;;5051927;28;20419;-85
2021/01/11 12:05:18;;;;;;;4.47;0.50;;;22.10;99.90;;;;;;5071408;28;20035;-87
2021/01/11 12:07:50;;;;;;;6.40;1.08;;;22.10;99.90;;;;;;5053862;28;20035;-85
2021/01/11 12:10:17;;;;;;;7.22;0.75;;;22.10;99.90;;;;;;5061876;28;20393;-88
2021/01/11 12:12:47;;;;;;;8.60;1.23;;;22.20;99.90;;;;;;5051796;28;20482;-82
2021/01/11 12:15:16;;;;;;;4.97;1.20;;;22.10;99.90;;;;;;5090417;22;20123;-86
2021/01/11 12:17:47;;;;;;;6.07;0.90;;;22.10;99.90;;;;;;5088137;22;20076;-83
2021/01/11 12:20:14;;;;;;;8.13;0.75;;;22.20;99.90;;;;;;5070604;28;20469;-86
2021/01/11 12:22:42;;;;;;;6.97;0.57;;;22.20;99.90;;;;;;5076943;22;20088;-87
2021/01/11 12:25:09;;;;;;;4.97;0.70;;;22.20;99.90;;;;;;5062743;28;20052;-86
2021/01/11 12:27:37;;;;;;;9.68;0.90;;;22.10;99.90;;;;;;5071733;28;20035;-86
2021/01/11 12:30:05;;;;;;;6.55;0.60;;;22.10;99.90;;;;;;5038799;28;20122;-86
2021/01/11 12:32:32;;;;;;;4.82;1.23;;;22.10;99.90;;;;;;5076888;22;20516;-86
2021/01/11 12:35:00;;;;;;;6.85;1.00;;;22.20;99.90;;;;;;5071480;28;20497;-87
2021/01/11 12:37:27;;;;;;;4.15;0.70;;;22.20;99.90;;;;;;5071095;28;20116;-86
2021/01/11 12:39:54;;;;;;;6.50;0.85;;;22.10;99.90;;;;;;5052910;28;20032;-84
2021/01/11 12:42:21;;;;;;;6.45;1.48;;;22.10;99.90;;;;;;5048915;28;20312;-86
2021/01/11 12:44:49;;;;;;;9.02;1.20;;;22.10;99.90;;;;;;5050788;28;20075;-87
2021/01/11 12:47:16;;;;;;;6.30;1.30;;;22.10;99.90;;;;;;5070305;22;20060;-86
2021/01/11 12:49:44;;;;;;;3.95;0.73;;;22.10;99.90;;;;;;5051493;28;20029;-86
2021/01/11 12:52:14;;;;;;;3.80;0.65;;;22.10;99.90;;;;;;5069971;28;20530;-83
2021/01/11 12:54:42;;;;;;;4.18;0.90;;;22.10;99.90;;;;;;5070529;28;20047;-86
2021/01/11 12:57:09;;;;;;;6.40;1.30;;;22.10;99.90;;;;;;5065556;28;20038;-85
2021/01/11 12:59:37;;;;;;;7.22;1.27;;;22.10;99.90;;;;;;5065366;28;20024;-85
2021/01/11 13:02:04;;;;;;;5.32;1.10;;;22.10;99.90;;;;;;5054929;28;20401;-84
2021/01/11 13:04:31;;;;;;;6.47;1.60;;;22.10;99.90;;;;;;5057373;28;20025;-83
2021/01/11 13:06:59;;;;;;;3.88;0.60;;;22.20;99.90;;;;;;5042130;28;20044;-86